臺北終端管制區 - 松西席

METAR RCSS 252100Z VRB02KT 9999 FEW025 25/20 Q1009 NOSIG RMK A2982=

站台狀態:Online
最後更新:2019-05-26 05:30:02